createdAt,value
2017-08-24T00:00:47.243Z,27.60
2017-08-24T00:03:15.368Z,27.60
2017-08-24T00:05:43.506Z,27.60
2017-08-24T00:08:11.662Z,28.10
2017-08-24T00:10:39.792Z,27.70
2017-08-24T00:13:07.937Z,27.70
2017-08-24T00:15:36.055Z,27.70
2017-08-24T00:18:04.199Z,27.40
2017-08-24T00:20:32.342Z,27.80
2017-08-24T00:23:00.472Z,27.80
2017-08-24T00:25:28.609Z,27.80
2017-08-24T00:27:56.749Z,27.80
2017-08-24T00:30:24.887Z,27.80
2017-08-24T00:32:53.044Z,27.90
2017-08-24T00:35:21.188Z,27.90
2017-08-24T00:37:49.330Z,27.80
2017-08-24T00:40:17.465Z,27.90
2017-08-24T00:42:45.580Z,27.90
2017-08-24T00:45:13.780Z,27.90
2017-08-24T00:47:41.972Z,28.00
2017-08-24T00:50:10.124Z,27.80
2017-08-24T00:52:38.316Z,28.10
2017-08-24T00:55:06.447Z,28.10
2017-08-24T00:57:34.678Z,28.10
2017-08-24T01:00:03.407Z,28.10
2017-08-24T01:02:31.603Z,28.20
2017-08-24T01:04:59.725Z,28.10
2017-08-24T01:07:27.864Z,28.20
2017-08-24T01:09:56.010Z,28.20
2017-08-24T01:12:24.137Z,28.20
2017-08-24T01:14:52.279Z,28.20
2017-08-24T01:17:20.419Z,28.30
2017-08-24T01:19:48.553Z,28.20
2017-08-24T01:22:16.684Z,28.30
2017-08-24T01:24:44.830Z,28.40
2017-08-24T01:27:12.984Z,28.40
2017-08-24T01:29:41.136Z,28.40
2017-08-24T01:32:09.328Z,28.40
2017-08-24T01:34:37.448Z,28.40
2017-08-24T01:37:05.575Z,28.40
2017-08-24T01:39:33.713Z,28.50
2017-08-24T01:42:01.849Z,28.50
2017-08-24T01:44:29.972Z,28.60
2017-08-24T01:46:58.163Z,28.60
2017-08-24T01:50:50.767Z,29.00
2017-08-24T01:53:19.060Z,28.60
2017-08-24T01:55:47.237Z,28.70
2017-08-24T01:58:15.340Z,28.90
2017-08-24T02:00:43.484Z,28.90
2017-08-24T02:03:11.612Z,28.90
2017-08-24T02:05:39.752Z,28.90
2017-08-24T02:08:08.000Z,28.80
2017-08-24T02:10:36.140Z,28.90
2017-08-24T02:13:04.276Z,28.80
2017-08-24T02:15:32.416Z,28.90
2017-08-24T02:18:00.620Z,28.90
2017-08-24T02:20:28.783Z,28.90
2017-08-24T02:22:56.941Z,28.90
2017-08-24T02:25:25.092Z,28.90
2017-08-24T02:27:53.248Z,28.90
2017-08-24T02:30:21.432Z,28.90
2017-08-24T02:32:49.567Z,29.00
2017-08-24T02:35:17.672Z,29.00
2017-08-24T02:37:45.810Z,29.00
2017-08-24T02:40:13.973Z,29.00
2017-08-24T02:42:42.100Z,29.00
2017-08-24T02:45:10.244Z,29.00
2017-08-24T02:47:38.395Z,29.10
2017-08-24T02:50:06.524Z,29.10
2017-08-24T02:52:34.653Z,29.20
2017-08-24T02:55:02.810Z,29.10
2017-08-24T02:57:30.929Z,29.20
2017-08-24T02:59:59.040Z,29.20
2017-08-24T03:02:27.655Z,29.20
2017-08-24T03:04:55.823Z,29.20
2017-08-24T03:07:23.976Z,29.20
2017-08-24T03:09:52.091Z,29.70
2017-08-24T03:12:20.247Z,29.30
2017-08-24T03:14:48.825Z,29.30
2017-08-24T03:17:17.085Z,29.30
2017-08-24T03:19:46.208Z,29.80
2017-08-24T03:22:14.364Z,29.40
2017-08-24T03:24:42.479Z,29.40
2017-08-24T03:27:10.655Z,29.40
2017-08-24T03:29:38.836Z,29.40
2017-08-24T03:32:06.981Z,29.50
2017-08-24T03:34:35.120Z,29.50
2017-08-24T03:37:03.234Z,29.50
2017-08-24T03:39:31.380Z,29.50
2017-08-24T03:41:59.520Z,29.50
2017-08-24T03:44:27.673Z,29.60
2017-08-24T03:46:56.605Z,29.60
2017-08-24T03:49:24.749Z,29.60
2017-08-24T03:51:52.873Z,29.60
2017-08-24T03:54:21.008Z,29.60
2017-08-24T03:56:49.149Z,29.60
2017-08-24T03:59:17.289Z,29.60
2017-08-24T04:01:45.430Z,29.60
2017-08-24T04:04:13.585Z,29.60
2017-08-24T04:06:41.724Z,29.60
2017-08-24T04:09:09.860Z,29.70
2017-08-24T04:11:37.987Z,29.70
2017-08-24T04:14:06.137Z,29.70
2017-08-24T04:16:34.271Z,29.70
2017-08-24T04:19:02.401Z,29.80
2017-08-24T04:21:31.280Z,29.80
2017-08-24T04:23:59.417Z,29.70
2017-08-24T04:26:27.544Z,29.80
2017-08-24T04:28:55.762Z,29.80
2017-08-24T04:31:23.918Z,29.80
2017-08-24T04:33:52.048Z,29.80
2017-08-24T04:36:20.196Z,29.80
2017-08-24T04:38:48.356Z,29.80
2017-08-24T04:41:16.497Z,29.80
2017-08-24T04:43:44.620Z,29.80
2017-08-24T04:46:12.796Z,29.80
2017-08-24T04:48:40.984Z,29.90
2017-08-24T04:51:09.128Z,29.90
2017-08-24T04:53:37.309Z,29.90
2017-08-24T04:56:05.432Z,29.90
2017-08-24T04:58:33.584Z,29.90
2017-08-24T05:03:40.069Z,29.90
2017-08-24T05:06:08.379Z,29.90
2017-08-24T05:08:36.511Z,29.90
2017-08-24T05:11:04.645Z,29.90
2017-08-24T05:13:32.805Z,29.90
2017-08-24T05:16:00.933Z,29.90
2017-08-24T05:18:29.072Z,29.90
2017-08-24T05:20:57.220Z,29.80
2017-08-24T05:23:25.372Z,29.90
2017-08-24T05:25:53.544Z,29.90
2017-08-24T05:28:22.460Z,30.00
2017-08-24T05:30:50.596Z,29.90
2017-08-24T05:33:18.744Z,29.90
2017-08-24T05:35:46.888Z,29.90
2017-08-24T05:40:53.026Z,29.90
2017-08-24T05:43:21.161Z,29.80
2017-08-24T05:45:49.303Z,29.80
2017-08-24T05:48:17.437Z,29.80
2017-08-24T05:50:45.611Z,29.80
2017-08-24T05:53:13.744Z,29.80
2017-08-24T05:55:41.877Z,29.90
2017-08-24T05:58:10.009Z,29.80
2017-08-24T06:00:38.249Z,30.00
2017-08-24T06:03:06.452Z,29.90
2017-08-24T06:05:34.592Z,29.50
2017-08-24T06:08:02.719Z,29.50
2017-08-24T06:10:30.915Z,29.10
2017-08-24T06:12:59.104Z,29.60
2017-08-24T06:15:27.224Z,29.70
2017-08-24T06:17:55.420Z,29.90
2017-08-24T06:20:23.596Z,29.90
2017-08-24T06:24:15.960Z,29.90
2017-08-24T06:26:44.255Z,29.90
2017-08-24T06:29:12.388Z,30.00
2017-08-24T06:31:40.524Z,30.20
2017-08-24T06:34:08.673Z,30.30
2017-08-24T06:36:36.845Z,30.40
2017-08-24T06:39:05.308Z,30.30
2017-08-24T06:41:33.444Z,30.10
2017-08-24T06:44:01.608Z,30.10
2017-08-24T06:46:29.753Z,30.20
2017-08-24T06:49:07.822Z,30.10
2017-08-24T06:51:36.161Z,30.00
2017-08-24T06:54:04.308Z,30.10
2017-08-24T06:56:32.489Z,30.20
2017-08-24T06:59:00.623Z,30.30
2017-08-24T07:01:28.780Z,30.30
2017-08-24T07:03:57.456Z,30.20
2017-08-24T07:06:25.744Z,30.30
2017-08-24T07:08:53.966Z,30.20
2017-08-24T07:11:22.100Z,30.90
2017-08-24T07:13:50.316Z,30.60
2017-08-24T07:16:18.606Z,30.80
2017-08-24T07:18:46.736Z,31.00
2017-08-24T07:21:14.869Z,31.30
2017-08-24T07:23:43.022Z,32.00
2017-08-24T07:26:11.187Z,31.80
2017-08-24T07:28:39.369Z,31.80
2017-08-24T07:31:07.502Z,31.70
2017-08-24T07:33:35.674Z,31.70
2017-08-24T07:36:03.768Z,31.80
2017-08-24T07:38:32.766Z,32.30
2017-08-24T07:41:00.932Z,32.80
2017-08-24T07:43:29.104Z,32.80
2017-08-24T07:45:57.236Z,33.10
2017-08-24T07:48:25.448Z,32.90
2017-08-24T07:50:53.596Z,32.60
2017-08-24T07:53:21.721Z,32.30
2017-08-24T07:56:00.052Z,32.20
2017-08-24T07:58:28.252Z,32.10
2017-08-24T08:00:56.368Z,32.10
2017-08-24T08:03:24.587Z,31.60
2017-08-24T08:05:52.805Z,31.40
2017-08-24T08:08:20.954Z,31.60
2017-08-24T08:10:49.071Z,31.80
2017-08-24T08:13:17.219Z,32.10
2017-08-24T08:15:45.348Z,32.00
2017-08-24T08:18:13.484Z,32.10
2017-08-24T08:20:41.608Z,31.80
2017-08-24T08:23:09.832Z,31.70
2017-08-24T08:25:38.964Z,31.60
2017-08-24T08:28:07.154Z,31.60
2017-08-24T08:30:35.344Z,31.60
2017-08-24T08:33:03.537Z,31.40
2017-08-24T08:35:31.657Z,31.40
2017-08-24T08:37:59.820Z,31.10
2017-08-24T08:40:27.955Z,31.10
2017-08-24T08:42:56.321Z,31.10
2017-08-24T08:45:24.464Z,31.70
2017-08-24T08:47:52.618Z,31.00
2017-08-24T08:50:20.753Z,30.90
2017-08-24T08:52:48.880Z,31.00
2017-08-24T08:55:17.358Z,30.90
2017-08-24T08:57:45.505Z,31.10
2017-08-24T09:00:13.920Z,31.10
2017-08-24T09:02:42.062Z,31.20
2017-08-24T09:05:10.200Z,31.00
2017-08-24T09:07:38.376Z,30.90
2017-08-24T09:10:06.589Z,30.90
2017-08-24T09:12:34.752Z,30.80
2017-08-24T09:15:03.981Z,31.10
2017-08-24T09:17:32.117Z,31.10
2017-08-24T09:20:00.249Z,31.20
2017-08-24T09:22:28.435Z,31.20
2017-08-24T09:24:56.615Z,31.10
2017-08-24T09:27:24.752Z,31.00
2017-08-24T09:29:53.023Z,30.80
2017-08-24T09:32:21.128Z,30.60
2017-08-24T09:34:49.252Z,30.70
2017-08-24T09:37:17.368Z,30.60
2017-08-24T09:39:45.497Z,30.50
2017-08-24T09:42:13.724Z,30.50
2017-08-24T09:44:41.840Z,30.40
2017-08-24T09:47:09.979Z,31.10
2017-08-24T09:49:38.088Z,30.60
2017-08-24T09:52:06.396Z,30.70
2017-08-24T09:54:34.617Z,30.70
2017-08-24T09:57:02.856Z,30.50
2017-08-24T09:59:31.008Z,30.50
2017-08-24T10:01:59.140Z,30.30
2017-08-24T10:04:27.286Z,30.00
2017-08-24T10:06:55.405Z,30.00
2017-08-24T10:09:23.548Z,29.90
2017-08-24T10:11:51.673Z,29.90
2017-08-24T10:14:19.857Z,29.90
2017-08-24T10:16:48.036Z,29.90
2017-08-24T10:19:16.184Z,29.80
2017-08-24T10:21:44.310Z,29.70
2017-08-24T10:24:12.452Z,29.60
2017-08-24T10:26:40.594Z,29.60
2017-08-24T10:29:08.891Z,29.60
2017-08-24T10:31:36.968Z,29.50
2017-08-24T10:34:05.089Z,29.60
2017-08-24T10:36:33.287Z,29.60
2017-08-24T10:39:01.439Z,29.60
2017-08-24T10:41:29.568Z,29.40
2017-08-24T10:43:57.800Z,29.30
2017-08-24T10:46:25.940Z,29.40
2017-08-24T10:48:54.088Z,29.40
2017-08-24T10:51:22.333Z,29.30
2017-08-24T10:53:50.481Z,29.20
2017-08-24T10:56:18.668Z,29.20
2017-08-24T10:58:46.841Z,29.20
2017-08-24T11:01:15.168Z,29.10
2017-08-24T11:03:43.373Z,29.00
2017-08-24T11:06:11.529Z,28.90
2017-08-24T11:08:39.656Z,29.00
2017-08-24T11:11:07.816Z,28.90
2017-08-24T11:13:35.948Z,28.80
2017-08-24T11:16:04.097Z,28.80
2017-08-24T11:18:32.252Z,28.80
2017-08-24T11:21:00.452Z,28.70
2017-08-24T11:23:28.597Z,28.60
2017-08-24T11:25:56.725Z,28.50
2017-08-24T11:28:24.852Z,28.60
2017-08-24T11:30:53.044Z,28.60
2017-08-24T11:33:21.279Z,28.60
2017-08-24T11:35:49.448Z,28.40
2017-08-24T11:38:17.716Z,28.50
2017-08-24T11:40:45.903Z,28.50
2017-08-24T11:43:14.060Z,28.50
2017-08-24T11:45:42.203Z,28.80
2017-08-24T11:48:10.346Z,28.30
2017-08-24T11:50:38.451Z,28.40
2017-08-24T11:53:06.608Z,28.40
2017-08-24T11:55:34.750Z,28.20
2017-08-24T11:58:02.869Z,28.30
2017-08-24T12:00:31.004Z,28.40
2017-08-24T12:02:59.925Z,28.10
2017-08-24T12:05:28.062Z,28.00
2017-08-24T12:07:56.332Z,28.10
2017-08-24T12:10:24.476Z,27.90
2017-08-24T12:12:52.612Z,27.80
2017-08-24T12:15:21.100Z,27.70
2017-08-24T12:17:49.324Z,27.60
2017-08-24T12:20:17.496Z,27.60
2017-08-24T12:22:45.637Z,27.50
2017-08-24T12:25:13.964Z,27.40
2017-08-24T12:27:42.160Z,27.30
2017-08-24T12:30:10.359Z,27.60
2017-08-24T12:32:38.480Z,27.20
2017-08-24T12:35:06.680Z,27.20
2017-08-24T12:37:34.828Z,26.80
2017-08-24T12:40:02.992Z,27.00
2017-08-24T12:42:31.136Z,27.60
2017-08-24T12:44:59.288Z,27.00
2017-08-24T12:47:28.474Z,26.80
2017-08-24T12:49:56.600Z,26.80
2017-08-24T12:52:24.841Z,26.80
2017-08-24T12:54:53.017Z,26.70
2017-08-24T12:57:21.587Z,26.70
2017-08-24T12:59:49.840Z,26.70
2017-08-24T13:02:18.796Z,26.60
2017-08-24T13:04:46.924Z,26.60
2017-08-24T13:07:15.081Z,26.50
2017-08-24T13:09:44.007Z,26.70
2017-08-24T13:12:12.180Z,26.60
2017-08-24T13:14:40.312Z,26.50
2017-08-24T13:17:08.437Z,26.50
2017-08-24T13:19:36.676Z,26.40
2017-08-24T13:22:04.852Z,26.40
2017-08-24T13:24:33.016Z,26.50
2017-08-24T13:27:01.164Z,26.20
2017-08-24T13:29:29.328Z,26.10
2017-08-24T13:31:57.582Z,26.00
2017-08-24T13:34:25.735Z,26.10
2017-08-24T13:36:53.880Z,26.10
2017-08-24T13:39:22.023Z,25.90
2017-08-24T13:41:50.152Z,26.00
2017-08-24T13:44:18.313Z,25.80
2017-08-24T13:46:46.452Z,26.10
2017-08-24T13:49:14.601Z,25.90
2017-08-24T13:51:42.773Z,25.70
2017-08-24T13:54:10.921Z,25.50
2017-08-24T13:56:39.122Z,25.50
2017-08-24T13:59:07.328Z,25.40
2017-08-24T14:01:35.453Z,25.50
2017-08-24T14:04:03.619Z,25.60
2017-08-24T14:06:31.769Z,25.60
2017-08-24T14:08:59.997Z,25.80
2017-08-24T14:11:28.176Z,25.50
2017-08-24T14:13:56.320Z,25.40
2017-08-24T14:17:49.148Z,25.30
2017-08-24T14:20:17.329Z,25.10
2017-08-24T14:22:45.490Z,25.10
2017-08-24T14:25:13.666Z,25.10
2017-08-24T14:27:41.819Z,25.00
2017-08-24T14:30:09.960Z,24.90
2017-08-24T14:32:38.122Z,24.80
2017-08-24T14:35:06.293Z,24.70
2017-08-24T14:37:34.449Z,24.50
2017-08-24T14:40:02.541Z,24.40
2017-08-24T14:42:31.421Z,24.10
2017-08-24T14:44:59.596Z,24.20
2017-08-24T14:47:27.807Z,24.20
2017-08-24T14:49:55.987Z,24.10
2017-08-24T14:52:24.101Z,24.00
2017-08-24T14:54:52.254Z,24.10
2017-08-24T14:57:20.532Z,24.10
2017-08-24T14:59:48.673Z,24.10
2017-08-24T15:02:16.840Z,24.10
2017-08-24T15:04:44.983Z,24.10
2017-08-24T15:07:13.136Z,24.30
2017-08-24T15:09:41.293Z,24.10
2017-08-24T15:12:09.436Z,24.10
2017-08-24T15:14:37.561Z,24.20
2017-08-24T15:17:05.700Z,24.20
2017-08-24T15:19:33.828Z,24.10
2017-08-24T15:22:02.010Z,24.10
2017-08-24T15:24:30.156Z,24.00
2017-08-24T15:26:58.390Z,24.20
2017-08-24T15:29:26.520Z,24.20
2017-08-24T15:31:54.664Z,24.30
2017-08-24T15:34:22.804Z,24.30
2017-08-24T15:36:50.924Z,24.30
2017-08-24T15:39:19.056Z,24.40
2017-08-24T15:41:47.257Z,24.30
2017-08-24T15:44:15.383Z,24.30
2017-08-24T15:46:43.529Z,24.30
2017-08-24T15:49:12.572Z,24.70
2017-08-24T15:51:40.742Z,24.30
2017-08-24T15:54:08.891Z,24.40
2017-08-24T15:56:37.034Z,24.30
2017-08-24T15:59:05.171Z,24.40
2017-08-24T16:01:33.321Z,24.50
2017-08-24T16:04:01.476Z,24.50
2017-08-24T16:06:29.608Z,24.70
2017-08-24T16:08:57.747Z,24.60
2017-08-24T16:11:25.889Z,24.60
2017-08-24T16:13:54.043Z,24.50
2017-08-24T16:16:22.196Z,25.00
2017-08-24T16:18:50.337Z,24.70
2017-08-24T16:21:18.608Z,24.60
2017-08-24T16:23:46.752Z,24.70
2017-08-24T16:26:14.880Z,24.70
2017-08-24T16:28:43.973Z,24.70
2017-08-24T16:31:12.109Z,24.70
2017-08-24T16:33:40.341Z,24.80
2017-08-24T16:36:08.464Z,24.70
2017-08-24T16:38:36.610Z,24.90
2017-08-24T16:41:04.763Z,25.10
2017-08-24T16:43:32.901Z,25.10
2017-08-24T16:46:01.061Z,25.10
2017-08-24T16:48:29.292Z,25.20
2017-08-24T16:50:57.464Z,25.30
2017-08-24T16:53:25.609Z,25.30
2017-08-24T16:55:53.856Z,25.50
2017-08-24T16:58:21.984Z,25.50
2017-08-24T17:00:50.130Z,25.60
2017-08-24T17:03:18.253Z,25.80
2017-08-24T17:05:46.375Z,25.70
2017-08-24T17:08:14.532Z,25.80
2017-08-24T17:10:42.680Z,25.90
2017-08-24T17:13:10.820Z,26.00
2017-08-24T17:15:39.005Z,26.20
2017-08-24T17:18:07.145Z,26.30
2017-08-24T17:20:35.732Z,26.40
2017-08-24T17:23:03.860Z,26.50
2017-08-24T17:25:32.005Z,26.60
2017-08-24T17:28:00.132Z,26.60
2017-08-24T17:30:28.277Z,26.70
2017-08-24T17:32:56.448Z,26.90
2017-08-24T17:35:25.624Z,26.90
2017-08-24T17:37:53.744Z,26.90
2017-08-24T17:40:21.876Z,27.10
2017-08-24T17:42:50.047Z,27.00
2017-08-24T17:45:18.185Z,27.00
2017-08-24T17:47:46.356Z,27.20
2017-08-24T17:50:14.580Z,27.20
2017-08-24T17:52:43.408Z,27.10
2017-08-24T17:55:11.548Z,27.10
2017-08-24T17:57:39.692Z,27.30
2017-08-24T18:00:07.808Z,27.60
2017-08-24T18:02:35.965Z,27.80
2017-08-24T18:05:04.104Z,28.60
2017-08-24T18:07:32.220Z,28.70
2017-08-24T18:10:00.420Z,28.30
2017-08-24T18:12:28.567Z,28.30
2017-08-24T18:14:56.721Z,28.40
2017-08-24T18:17:24.837Z,28.20
2017-08-24T18:19:52.980Z,28.20
2017-08-24T18:22:21.828Z,28.50
2017-08-24T18:24:49.968Z,28.50
2017-08-24T18:27:18.105Z,28.80
2017-08-24T18:29:46.236Z,28.50
2017-08-24T18:32:14.404Z,28.80
2017-08-24T18:34:42.552Z,29.00
2017-08-24T18:37:10.677Z,29.20
2017-08-24T18:39:38.801Z,29.70
2017-08-24T18:42:06.940Z,29.30
2017-08-24T18:44:35.117Z,29.90
2017-08-24T18:47:03.332Z,29.60
2017-08-24T18:49:31.529Z,29.80
2017-08-24T18:51:59.699Z,29.90
2017-08-24T18:54:27.849Z,30.00
2017-08-24T18:56:55.984Z,30.00
2017-08-24T18:59:24.160Z,29.60
2017-08-24T19:01:52.280Z,30.00
2017-08-24T19:04:20.421Z,30.00
2017-08-24T19:06:48.572Z,30.00
2017-08-24T19:09:16.713Z,30.20
2017-08-24T19:11:44.860Z,30.20
2017-08-24T19:14:12.984Z,30.20
2017-08-24T19:16:41.760Z,30.30
2017-08-24T19:19:09.895Z,30.30
2017-08-24T19:21:38.012Z,30.20
2017-08-24T19:24:06.144Z,30.20
2017-08-24T19:26:34.814Z,30.20
2017-08-24T19:29:02.936Z,30.20
2017-08-24T19:31:31.056Z,30.30
2017-08-24T19:33:59.201Z,30.40
2017-08-24T19:36:27.331Z,30.50
2017-08-24T19:38:55.468Z,30.50
2017-08-24T19:41:23.719Z,30.60
2017-08-24T19:43:51.840Z,30.50
2017-08-24T19:46:19.972Z,30.60
2017-08-24T19:48:48.145Z,30.60
2017-08-24T19:51:16.272Z,30.70
2017-08-24T19:53:45.173Z,30.90
2017-08-24T19:56:14.080Z,30.90
2017-08-24T19:58:42.212Z,30.80
2017-08-24T20:01:11.052Z,30.80
2017-08-24T20:03:39.196Z,31.50
2017-08-24T20:06:08.096Z,32.30
2017-08-24T20:08:36.988Z,31.30
2017-08-24T20:11:05.117Z,31.30
2017-08-24T20:13:33.248Z,31.40
2017-08-24T20:16:01.376Z,30.90
2017-08-24T20:18:29.541Z,30.80
2017-08-24T20:20:57.688Z,30.90
2017-08-24T20:23:25.880Z,31.20
2017-08-24T20:25:54.043Z,30.80
2017-08-24T20:28:22.151Z,31.10
2017-08-24T20:30:50.296Z,30.90
2017-08-24T20:33:18.441Z,30.70
2017-08-24T20:35:46.581Z,31.40
2017-08-24T20:38:14.722Z,31.50
2017-08-24T20:40:42.857Z,32.10
2017-08-24T20:43:11.000Z,31.70
2017-08-24T20:45:40.340Z,31.80
2017-08-24T20:48:08.471Z,31.70
2017-08-24T20:50:37.424Z,32.20
2017-08-24T20:53:05.572Z,31.50
2017-08-24T20:55:33.734Z,31.90
2017-08-24T20:58:01.877Z,31.80
2017-08-24T21:00:30.028Z,31.90
2017-08-24T21:02:58.151Z,31.80
2017-08-24T21:05:27.072Z,31.70
2017-08-24T21:07:55.293Z,31.70
2017-08-24T21:10:23.428Z,31.70
2017-08-24T21:12:51.577Z,31.70
2017-08-24T21:15:19.728Z,31.70
2017-08-24T21:17:47.896Z,31.80
2017-08-24T21:20:16.032Z,31.90
2017-08-24T21:22:44.264Z,31.80
2017-08-24T21:25:12.479Z,31.80
2017-08-24T21:27:40.630Z,31.90
2017-08-24T21:30:08.781Z,31.90
2017-08-24T21:32:36.923Z,32.10
2017-08-24T21:35:05.088Z,32.10
2017-08-24T21:37:33.284Z,32.00
2017-08-24T21:40:01.421Z,32.00
2017-08-24T21:42:29.562Z,32.00
2017-08-24T21:44:57.716Z,31.90
2017-08-24T21:47:25.848Z,32.10
2017-08-24T21:49:53.972Z,33.40
2017-08-24T21:52:22.096Z,32.60
2017-08-24T21:57:36.763Z,31.80
2017-08-24T22:00:04.908Z,31.30
2017-08-24T22:02:33.044Z,31.10
2017-08-24T22:05:01.189Z,31.20
2017-08-24T22:07:29.347Z,31.30
2017-08-24T22:09:57.490Z,31.20
2017-08-24T22:12:25.721Z,31.20
2017-08-24T22:17:29.625Z,30.80
2017-08-24T22:19:57.805Z,31.40
2017-08-24T22:22:25.963Z,31.60
2017-08-24T22:24:54.164Z,31.90
2017-08-24T22:27:22.331Z,32.10
2017-08-24T22:29:50.469Z,32.30
2017-08-24T22:32:18.612Z,32.40
2017-08-24T22:34:46.843Z,32.40
2017-08-24T22:37:14.972Z,32.30
2017-08-24T22:39:43.151Z,32.20
2017-08-24T22:42:11.380Z,32.10
2017-08-24T22:44:39.520Z,32.10
2017-08-24T22:47:07.660Z,32.00
2017-08-24T22:49:35.779Z,32.00
2017-08-24T22:52:04.020Z,32.00
2017-08-24T22:54:36.416Z,32.00
2017-08-24T22:58:08.812Z,32.10
2017-08-24T23:01:40.029Z,32.00
2017-08-24T23:04:08.347Z,32.30
2017-08-24T23:06:36.482Z,32.50
2017-08-24T23:09:05.096Z,32.50
2017-08-24T23:11:33.225Z,33.80
2017-08-24T23:14:01.375Z,33.60
2017-08-24T23:16:29.538Z,32.70
2017-08-24T23:18:57.660Z,32.20
2017-08-24T23:21:25.790Z,32.20
2017-08-24T23:23:53.916Z,31.60
2017-08-24T23:26:22.068Z,31.70
2017-08-24T23:28:50.200Z,33.80
2017-08-24T23:31:18.353Z,34.20
2017-08-24T23:33:46.504Z,33.30
2017-08-24T23:36:14.627Z,32.70
2017-08-24T23:38:42.824Z,32.20
2017-08-24T23:41:10.985Z,32.20
2017-08-24T23:43:39.128Z,31.60
2017-08-24T23:46:07.246Z,31.40
2017-08-24T23:48:35.418Z,31.40
2017-08-24T23:51:03.573Z,31.70
2017-08-24T23:53:31.708Z,32.10
2017-08-24T23:55:59.925Z,32.40
2017-08-24T23:58:28.080Z,32.60
